sensor_id;sensor_type;location;lat;lon;timestamp;P1;durP1;ratioP1;P2;durP2;ratioP2
56045;SDS011;41913;51.030;3.706;2023-05-19T00:01:31;2.08;;;1.98;;
56045;SDS011;41913;51.030;3.706;2023-05-19T00:03:57;2.45;;;2.25;;
56045;SDS011;41913;51.030;3.706;2023-05-19T00:06:27;2.53;;;1.92;;
56045;SDS011;41913;51.030;3.706;2023-05-19T00:09:01;2.13;;;2.03;;
56045;SDS011;41913;51.030;3.706;2023-05-19T00:11:29;1.90;;;1.80;;
56045;SDS011;41913;51.030;3.706;2023-05-19T00:13:56;1.90;;;1.58;;
56045;SDS011;41913;51.030;3.706;2023-05-19T00:16:23;2.10;;;1.88;;
56045;SDS011;41913;51.030;3.706;2023-05-19T00:18:51;2.08;;;1.95;;
56045;SDS011;41913;51.030;3.706;2023-05-19T00:21:17;3.03;;;2.25;;
56045;SDS011;41913;51.030;3.706;2023-05-19T00:23:43;4.80;;;2.28;;
56045;SDS011;41913;51.030;3.706;2023-05-19T00:26:09;2.25;;;2.00;;
56045;SDS011;41913;51.030;3.706;2023-05-19T00:28:35;1.88;;;1.75;;
56045;SDS011;41913;51.030;3.706;2023-05-19T00:31:01;2.40;;;2.30;;
56045;SDS011;41913;51.030;3.706;2023-05-19T00:33:28;3.72;;;2.03;;
56045;SDS011;41913;51.030;3.706;2023-05-19T00:35:54;4.35;;;2.55;;
56045;SDS011;41913;51.030;3.706;2023-05-19T00:38:20;1.73;;;1.67;;
56045;SDS011;41913;51.030;3.706;2023-05-19T00:40:46;3.35;;;2.17;;
56045;SDS011;41913;51.030;3.706;2023-05-19T00:43:11;3.70;;;2.22;;
56045;SDS011;41913;51.030;3.706;2023-05-19T00:45:37;4.40;;;2.30;;
56045;SDS011;41913;51.030;3.706;2023-05-19T00:48:03;2.90;;;2.38;;
56045;SDS011;41913;51.030;3.706;2023-05-19T00:50:28;2.55;;;2.33;;
56045;SDS011;41913;51.030;3.706;2023-05-19T00:52:55;2.67;;;1.92;;
56045;SDS011;41913;51.030;3.706;2023-05-19T00:55:25;5.75;;;2.60;;
56045;SDS011;41913;51.030;3.706;2023-05-19T00:57:53;2.83;;;2.70;;
56045;SDS011;41913;51.030;3.706;2023-05-19T01:00:21;2.40;;;2.30;;
56045;SDS011;41913;51.030;3.706;2023-05-19T01:02:47;2.70;;;2.33;;
56045;SDS011;41913;51.030;3.706;2023-05-19T01:05:14;3.25;;;2.40;;
56045;SDS011;41913;51.030;3.706;2023-05-19T01:07:40;2.15;;;2.05;;
56045;SDS011;41913;51.030;3.706;2023-05-19T01:10:07;2.15;;;1.92;;
56045;SDS011;41913;51.030;3.706;2023-05-19T01:12:34;4.93;;;2.60;;
56045;SDS011;41913;51.030;3.706;2023-05-19T01:15:01;2.20;;;2.05;;
56045;SDS011;41913;51.030;3.706;2023-05-19T01:29:11;2.38;;;2.17;;
56045;SDS011;41913;51.030;3.706;2023-05-19T01:31:42;2.63;;;1.88;;
56045;SDS011;41913;51.030;3.706;2023-05-19T01:34:11;2.83;;;2.67;;
56045;SDS011;41913;51.030;3.706;2023-05-19T01:36:38;7.10;;;2.50;;
56045;SDS011;41913;51.030;3.706;2023-05-19T01:39:08;2.28;;;2.17;;
56045;SDS011;41913;51.030;3.706;2023-05-19T01:41:35;3.95;;;2.10;;
56045;SDS011;41913;51.030;3.706;2023-05-19T01:44:03;2.88;;;2.20;;
56045;SDS011;41913;51.030;3.706;2023-05-19T01:46:30;2.30;;;2.17;;
56045;SDS011;41913;51.030;3.706;2023-05-19T01:48:55;2.55;;;2.35;;
56045;SDS011;41913;51.030;3.706;2023-05-19T01:51:22;2.60;;;2.30;;
56045;SDS011;41913;51.030;3.706;2023-05-19T01:53:48;1.75;;;1.65;;
56045;SDS011;41913;51.030;3.706;2023-05-19T01:56:15;3.47;;;2.67;;
56045;SDS011;41913;51.030;3.706;2023-05-19T01:58:48;2.60;;;2.50;;
56045;SDS011;41913;51.030;3.706;2023-05-19T02:01:28;3.10;;;2.67;;
56045;SDS011;41913;51.030;3.706;2023-05-19T02:12:37;2.55;;;2.38;;
56045;SDS011;41913;51.030;3.706;2023-05-19T02:15:06;3.25;;;2.53;;
56045;SDS011;41913;51.030;3.706;2023-05-19T02:17:36;2.90;;;2.42;;
56045;SDS011;41913;51.030;3.706;2023-05-19T02:20:06;3.08;;;2.35;;
56045;SDS011;41913;51.030;3.706;2023-05-19T02:22:33;2.25;;;1.92;;
56045;SDS011;41913;51.030;3.706;2023-05-19T02:25:01;4.30;;;2.38;;
56045;SDS011;41913;51.030;3.706;2023-05-19T02:27:26;4.13;;;2.13;;
56045;SDS011;41913;51.030;3.706;2023-05-19T02:29:52;2.03;;;1.92;;
56045;SDS011;41913;51.030;3.706;2023-05-19T02:32:19;2.50;;;2.20;;
56045;SDS011;41913;51.030;3.706;2023-05-19T02:34:44;3.17;;;2.58;;
56045;SDS011;41913;51.030;3.706;2023-05-19T02:37:13;2.58;;;2.20;;
56045;SDS011;41913;51.030;3.706;2023-05-19T02:39:43;2.65;;;2.45;;
56045;SDS011;41913;51.030;3.706;2023-05-19T02:42:09;2.67;;;1.77;;
56045;SDS011;41913;51.030;3.706;2023-05-19T02:44:36;3.47;;;2.67;;
56045;SDS011;41913;51.030;3.706;2023-05-19T02:47:02;3.58;;;2.25;;
56045;SDS011;41913;51.030;3.706;2023-05-19T02:49:27;2.22;;;2.10;;
56045;SDS011;41913;51.030;3.706;2023-05-19T02:51:59;2.88;;;2.17;;
56045;SDS011;41913;51.030;3.706;2023-05-19T02:54:31;2.50;;;2.30;;
56045;SDS011;41913;51.030;3.706;2023-05-19T02:56:58;3.10;;;2.45;;
56045;SDS011;41913;51.030;3.706;2023-05-19T02:59:24;2.45;;;1.90;;
56045;SDS011;41913;51.030;3.706;2023-05-19T03:01:58;4.03;;;2.28;;
56045;SDS011;41913;51.030;3.706;2023-05-19T03:04:25;3.30;;;2.20;;
56045;SDS011;41913;51.030;3.706;2023-05-19T03:06:51;3.47;;;2.25;;
56045;SDS011;41913;51.030;3.706;2023-05-19T03:09:18;3.42;;;2.08;;
56045;SDS011;41913;51.030;3.706;2023-05-19T03:11:44;2.35;;;2.15;;
56045;SDS011;41913;51.030;3.706;2023-05-19T03:14:09;2.90;;;2.53;;
56045;SDS011;41913;51.030;3.706;2023-05-19T03:16:37;2.47;;;2.30;;
56045;SDS011;41913;51.030;3.706;2023-05-19T03:19:05;2.03;;;1.92;;
56045;SDS011;41913;51.030;3.706;2023-05-19T03:21:31;2.05;;;1.95;;
56045;SDS011;41913;51.030;3.706;2023-05-19T03:23:58;2.63;;;2.28;;
56045;SDS011;41913;51.030;3.706;2023-05-19T03:26:25;1.95;;;1.85;;
56045;SDS011;41913;51.030;3.706;2023-05-19T03:28:51;1.70;;;1.60;;
56045;SDS011;41913;51.030;3.706;2023-05-19T03:31:16;2.55;;;2.03;;
56045;SDS011;41913;51.030;3.706;2023-05-19T03:33:42;3.55;;;2.33;;
56045;SDS011;41913;51.030;3.706;2023-05-19T03:36:08;2.17;;;1.98;;
56045;SDS011;41913;51.030;3.706;2023-05-19T03:38:34;1.95;;;1.77;;
56045;SDS011;41913;51.030;3.706;2023-05-19T03:40:59;2.53;;;2.33;;
56045;SDS011;41913;51.030;3.706;2023-05-19T03:43:25;2.50;;;2.30;;
56045;SDS011;41913;51.030;3.706;2023-05-19T03:45:51;2.30;;;2.10;;
56045;SDS011;41913;51.030;3.706;2023-05-19T03:48:17;2.10;;;1.92;;
56045;SDS011;41913;51.030;3.706;2023-05-19T03:50:43;2.30;;;2.10;;
56045;SDS011;41913;51.030;3.706;2023-05-19T03:53:08;2.63;;;2.33;;
56045;SDS011;41913;51.030;3.706;2023-05-19T03:55:34;2.28;;;2.03;;
56045;SDS011;41913;51.030;3.706;2023-05-19T03:58:01;2.55;;;2.20;;
56045;SDS011;41913;51.030;3.706;2023-05-19T04:00:27;2.17;;;2.08;;
56045;SDS011;41913;51.030;3.706;2023-05-19T04:02:53;5.03;;;2.22;;
56045;SDS011;41913;51.030;3.706;2023-05-19T04:05:18;2.97;;;1.98;;
56045;SDS011;41913;51.030;3.706;2023-05-19T04:07:44;1.90;;;1.80;;
56045;SDS011;41913;51.030;3.706;2023-05-19T04:10:10;2.65;;;2.10;;
56045;SDS011;41913;51.030;3.706;2023-05-19T04:12:36;2.28;;;2.08;;
56045;SDS011;41913;51.030;3.706;2023-05-19T04:15:02;3.38;;;2.55;;
56045;SDS011;41913;51.030;3.706;2023-05-19T04:17:30;2.13;;;2.03;;
56045;SDS011;41913;51.030;3.706;2023-05-19T04:19:55;2.10;;;1.98;;
56045;SDS011;41913;51.030;3.706;2023-05-19T04:22:21;1.73;;;1.63;;
56045;SDS011;41913;51.030;3.706;2023-05-19T04:24:47;2.97;;;2.08;;
56045;SDS011;41913;51.030;3.706;2023-05-19T04:27:14;3.85;;;2.10;;
56045;SDS011;41913;51.030;3.706;2023-05-19T04:29:42;2.03;;;1.88;;
56045;SDS011;41913;51.030;3.706;2023-05-19T04:32:08;3.85;;;1.83;;
56045;SDS011;41913;51.030;3.706;2023-05-19T04:34:34;3.22;;;1.77;;
56045;SDS011;41913;51.030;3.706;2023-05-19T04:37:04;2.97;;;2.13;;
56045;SDS011;41913;51.030;3.706;2023-05-19T04:39:31;1.83;;;1.60;;
56045;SDS011;41913;51.030;3.706;2023-05-19T04:41:57;2.17;;;2.05;;
56045;SDS011;41913;51.030;3.706;2023-05-19T04:44:23;2.72;;;1.98;;
56045;SDS011;41913;51.030;3.706;2023-05-19T04:46:50;1.80;;;1.70;;
56045;SDS011;41913;51.030;3.706;2023-05-19T04:49:18;3.08;;;1.88;;
56045;SDS011;41913;51.030;3.706;2023-05-19T04:51:44;2.03;;;1.63;;
56045;SDS011;41913;51.030;3.706;2023-05-19T04:54:13;3.45;;;2.33;;
56045;SDS011;41913;51.030;3.706;2023-05-19T04:56:39;3.83;;;1.60;;
56045;SDS011;41913;51.030;3.706;2023-05-19T04:59:06;1.77;;;1.67;;
56045;SDS011;41913;51.030;3.706;2023-05-19T05:01:34;2.20;;;1.92;;
56045;SDS011;41913;51.030;3.706;2023-05-19T05:04:04;1.73;;;1.63;;
56045;SDS011;41913;51.030;3.706;2023-05-19T05:06:30;3.10;;;1.48;;
56045;SDS011;41913;51.030;3.706;2023-05-19T05:08:56;2.08;;;1.60;;
56045;SDS011;41913;51.030;3.706;2023-05-19T05:11:22;1.92;;;1.83;;
56045;SDS011;41913;51.030;3.706;2023-05-19T05:13:48;2.22;;;1.95;;
56045;SDS011;41913;51.030;3.706;2023-05-19T05:16:14;1.85;;;1.75;;
56045;SDS011;41913;51.030;3.706;2023-05-19T05:18:40;2.15;;;1.95;;
56045;SDS011;41913;51.030;3.706;2023-05-19T05:21:06;5.03;;;1.55;;
56045;SDS011;41913;51.030;3.706;2023-05-19T05:23:33;3.40;;;2.08;;
56045;SDS011;41913;51.030;3.706;2023-05-19T05:25:58;1.85;;;1.17;;
56045;SDS011;41913;51.030;3.706;2023-05-19T05:28:29;1.85;;;1.75;;
56045;SDS011;41913;51.030;3.706;2023-05-19T05:30:55;1.70;;;1.60;;
56045;SDS011;41913;51.030;3.706;2023-05-19T05:33:21;1.40;;;1.33;;
56045;SDS011;41913;51.030;3.706;2023-05-19T05:35:48;2.17;;;1.73;;
56045;SDS011;41913;51.030;3.706;2023-05-19T05:38:14;1.58;;;1.48;;
56045;SDS011;41913;51.030;3.706;2023-05-19T05:40:40;2.20;;;1.50;;
56045;SDS011;41913;51.030;3.706;2023-05-19T05:43:05;1.67;;;1.40;;
56045;SDS011;41913;51.030;3.706;2023-05-19T05:45:31;3.78;;;1.80;;
56045;SDS011;41913;51.030;3.706;2023-05-19T05:47:57;2.20;;;1.50;;
56045;SDS011;41913;51.030;3.706;2023-05-19T05:50:23;1.75;;;1.50;;
56045;SDS011;41913;51.030;3.706;2023-05-19T05:52:48;3.50;;;1.88;;
56045;SDS011;41913;51.030;3.706;2023-05-19T05:55:16;1.95;;;1.75;;
56045;SDS011;41913;51.030;3.706;2023-05-19T05:57:42;1.17;;;1.17;;
56045;SDS011;41913;51.030;3.706;2023-05-19T06:00:08;2.45;;;2.13;;
56045;SDS011;41913;51.030;3.706;2023-05-19T06:02:40;4.03;;;1.85;;
56045;SDS011;41913;51.030;3.706;2023-05-19T06:05:07;1.50;;;1.40;;
56045;SDS011;41913;51.030;3.706;2023-05-19T06:07:36;3.30;;;1.85;;
56045;SDS011;41913;51.030;3.706;2023-05-19T06:10:03;1.77;;;1.65;;
56045;SDS011;41913;51.030;3.706;2023-05-19T06:12:29;1.95;;;1.38;;
56045;SDS011;41913;51.030;3.706;2023-05-19T06:14:55;3.38;;;1.73;;
56045;SDS011;41913;51.030;3.706;2023-05-19T06:17:21;4.05;;;1.92;;
56045;SDS011;41913;51.030;3.706;2023-05-19T06:19:47;1.35;;;1.13;;
56045;SDS011;41913;51.030;3.706;2023-05-19T06:22:13;1.60;;;1.45;;
56045;SDS011;41913;51.030;3.706;2023-05-19T06:24:39;1.42;;;1.33;;
56045;SDS011;41913;51.030;3.706;2023-05-19T06:27:04;1.60;;;1.50;;
56045;SDS011;41913;51.030;3.706;2023-05-19T06:29:30;1.80;;;1.30;;
56045;SDS011;41913;51.030;3.706;2023-05-19T06:31:56;1.70;;;1.55;;
56045;SDS011;41913;51.030;3.706;2023-05-19T06:34:21;1.20;;;1.20;;
56045;SDS011;41913;51.030;3.706;2023-05-19T06:36:47;2.00;;;1.65;;
56045;SDS011;41913;51.030;3.706;2023-05-19T06:39:13;1.95;;;1.27;;
56045;SDS011;41913;51.030;3.706;2023-05-19T06:41:39;2.05;;;1.88;;
56045;SDS011;41913;51.030;3.706;2023-05-19T06:44:05;1.50;;;1.40;;
56045;SDS011;41913;51.030;3.706;2023-05-19T06:46:33;1.70;;;1.60;;
56045;SDS011;41913;51.030;3.706;2023-05-19T06:48:59;1.67;;;1.58;;
56045;SDS011;41913;51.030;3.706;2023-05-19T06:51:25;1.40;;;1.30;;
56045;SDS011;41913;51.030;3.706;2023-05-19T06:53:51;2.28;;;1.65;;
56045;SDS011;41913;51.030;3.706;2023-05-19T06:56:17;1.60;;;1.50;;
56045;SDS011;41913;51.030;3.706;2023-05-19T06:58:44;1.42;;;1.33;;
56045;SDS011;41913;51.030;3.706;2023-05-19T07:01:09;2.00;;;1.42;;
56045;SDS011;41913;51.030;3.706;2023-05-19T07:03:35;1.50;;;1.40;;
56045;SDS011;41913;51.030;3.706;2023-05-19T07:06:01;1.63;;;1.50;;
56045;SDS011;41913;51.030;3.706;2023-05-19T07:08:27;1.30;;;1.27;;
56045;SDS011;41913;51.030;3.706;2023-05-19T07:10:53;1.60;;;1.45;;
56045;SDS011;41913;51.030;3.706;2023-05-19T07:13:21;1.27;;;1.23;;
56045;SDS011;41913;51.030;3.706;2023-05-19T07:15:47;1.45;;;1.35;;
56045;SDS011;41913;51.030;3.706;2023-05-19T07:18:14;1.02;;;1.02;;
56045;SDS011;41913;51.030;3.706;2023-05-19T07:20:40;1.88;;;1.63;;
56045;SDS011;41913;51.030;3.706;2023-05-19T07:23:06;1.80;;;1.33;;
56045;SDS011;41913;51.030;3.706;2023-05-19T07:25:32;2.35;;;1.67;;
56045;SDS011;41913;51.030;3.706;2023-05-19T07:27:58;1.35;;;1.35;;
56045;SDS011;41913;51.030;3.706;2023-05-19T07:30:25;1.45;;;1.35;;
56045;SDS011;41913;51.030;3.706;2023-05-19T07:32:52;1.17;;;1.17;;
56045;SDS011;41913;51.030;3.706;2023-05-19T07:35:18;2.85;;;1.15;;
56045;SDS011;41913;51.030;3.706;2023-05-19T07:37:44;1.55;;;1.20;;
56045;SDS011;41913;51.030;3.706;2023-05-19T07:40:10;1.67;;;1.55;;
56045;SDS011;41913;51.030;3.706;2023-05-19T07:42:35;1.40;;;1.35;;
56045;SDS011;41913;51.030;3.706;2023-05-19T07:45:01;1.55;;;1.45;;
56045;SDS011;41913;51.030;3.706;2023-05-19T07:47:28;1.52;;;1.42;;
56045;SDS011;41913;51.030;3.706;2023-05-19T07:49:54;1.10;;;1.10;;
56045;SDS011;41913;51.030;3.706;2023-05-19T07:52:20;1.60;;;1.50;;
56045;SDS011;41913;51.030;3.706;2023-05-19T07:54:46;1.48;;;1.33;;
56045;SDS011;41913;51.030;3.706;2023-05-19T07:57:11;1.55;;;1.40;;
56045;SDS011;41913;51.030;3.706;2023-05-19T07:59:38;1.40;;;1.30;;
56045;SDS011;41913;51.030;3.706;2023-05-19T08:02:04;1.50;;;1.35;;
56045;SDS011;41913;51.030;3.706;2023-05-19T08:04:30;1.23;;;1.23;;
56045;SDS011;41913;51.030;3.706;2023-05-19T08:06:56;2.00;;;1.52;;
56045;SDS011;41913;51.030;3.706;2023-05-19T08:09:22;2.85;;;1.40;;
56045;SDS011;41913;51.030;3.706;2023-05-19T08:11:48;1.27;;;1.23;;
56045;SDS011;41913;51.030;3.706;2023-05-19T08:14:14;1.88;;;1.40;;
56045;SDS011;41913;51.030;3.706;2023-05-19T08:16:40;1.63;;;1.52;;
56045;SDS011;41913;51.030;3.706;2023-05-19T08:19:10;1.48;;;1.17;;
56045;SDS011;41913;51.030;3.706;2023-05-19T08:21:36;1.48;;;1.38;;
56045;SDS011;41913;51.030;3.706;2023-05-19T08:24:02;1.40;;;1.40;;
56045;SDS011;41913;51.030;3.706;2023-05-19T08:26:28;3.90;;;1.70;;
56045;SDS011;41913;51.030;3.706;2023-05-19T08:28:55;1.63;;;1.52;;
56045;SDS011;41913;51.030;3.706;2023-05-19T08:31:20;2.08;;;1.88;;
56045;SDS011;41913;51.030;3.706;2023-05-19T08:33:46;2.13;;;1.92;;
56045;SDS011;41913;51.030;3.706;2023-05-19T08:36:12;2.35;;;2.25;;
56045;SDS011;41913;51.030;3.706;2023-05-19T08:38:38;2.40;;;2.20;;
56045;SDS011;41913;51.030;3.706;2023-05-19T08:41:03;2.10;;;2.00;;
56045;SDS011;41913;51.030;3.706;2023-05-19T08:43:30;4.45;;;4.05;;
56045;SDS011;41913;51.030;3.706;2023-05-19T08:45:55;4.78;;;3.22;;
56045;SDS011;41913;51.030;3.706;2023-05-19T08:48:24;4.32;;;3.92;;
56045;SDS011;41913;51.030;3.706;2023-05-19T08:53:59;3.75;;;3.40;;
56045;SDS011;41913;51.030;3.706;2023-05-19T08:56:40;4.82;;;4.43;;
56045;SDS011;41913;51.030;3.706;2023-05-19T08:59:13;5.38;;;4.88;;
56045;SDS011;41913;51.030;3.706;2023-05-19T09:01:43;5.30;;;4.80;;
56045;SDS011;41913;51.030;3.706;2023-05-19T09:04:12;7.07;;;5.00;;
56045;SDS011;41913;51.030;3.706;2023-05-19T09:06:39;6.15;;;5.32;;
56045;SDS011;41913;51.030;3.706;2023-05-19T09:09:06;5.30;;;4.80;;
56045;SDS011;41913;51.030;3.706;2023-05-19T09:11:32;5.57;;;5.13;;
56045;SDS011;41913;51.030;3.706;2023-05-19T09:14:01;5.95;;;5.43;;
56045;SDS011;41913;51.030;3.706;2023-05-19T09:16:28;6.72;;;5.90;;
56045;SDS011;41913;51.030;3.706;2023-05-19T09:18:54;8.70;;;6.30;;
56045;SDS011;41913;51.030;3.706;2023-05-19T09:21:27;6.97;;;5.18;;
56045;SDS011;41913;51.030;3.706;2023-05-19T09:23:55;6.57;;;5.97;;
56045;SDS011;41913;51.030;3.706;2023-05-19T09:26:22;7.72;;;5.85;;
56045;SDS011;41913;51.030;3.706;2023-05-19T09:28:48;7.30;;;5.88;;
56045;SDS011;41913;51.030;3.706;2023-05-19T09:31:14;5.45;;;4.95;;
56045;SDS011;41913;51.030;3.706;2023-05-19T09:33:41;7.75;;;5.75;;
56045;SDS011;41913;51.030;3.706;2023-05-19T09:36:07;7.07;;;5.35;;
56045;SDS011;41913;51.030;3.706;2023-05-19T09:38:35;7.70;;;6.90;;
56045;SDS011;41913;51.030;3.706;2023-05-19T09:41:02;6.07;;;5.45;;
56045;SDS011;41913;51.030;3.706;2023-05-19T09:43:29;6.65;;;5.47;;
56045;SDS011;41913;51.030;3.706;2023-05-19T09:48:33;5.78;;;5.20;;
56045;SDS011;41913;51.030;3.706;2023-05-19T09:51:00;7.10;;;6.38;;
56045;SDS011;41913;51.030;3.706;2023-05-19T09:53:27;6.93;;;6.22;;
56045;SDS011;41913;51.030;3.706;2023-05-19T09:55:55;6.32;;;5.63;;
56045;SDS011;41913;51.030;3.706;2023-05-19T09:58:22;7.43;;;6.13;;
56045;SDS011;41913;51.030;3.706;2023-05-19T10:00:48;7.97;;;6.03;;
56045;SDS011;41913;51.030;3.706;2023-05-19T10:03:15;7.00;;;5.63;;
56045;SDS011;41913;51.030;3.706;2023-05-19T10:05:42;7.25;;;5.70;;
56045;SDS011;41913;51.030;3.706;2023-05-19T10:08:09;6.97;;;5.95;;
56045;SDS011;41913;51.030;3.706;2023-05-19T10:10:36;9.95;;;6.40;;
56045;SDS011;41913;51.030;3.706;2023-05-19T10:13:03;6.80;;;5.30;;
56045;SDS011;41913;51.030;3.706;2023-05-19T10:15:29;7.57;;;6.28;;
56045;SDS011;41913;51.030;3.706;2023-05-19T10:17:56;6.00;;;5.40;;
56045;SDS011;41913;51.030;3.706;2023-05-19T10:20:23;6.85;;;5.88;;
56045;SDS011;41913;51.030;3.706;2023-05-19T10:22:50;7.97;;;5.80;;
56045;SDS011;41913;51.030;3.706;2023-05-19T10:25:16;6.75;;;5.55;;
56045;SDS011;41913;51.030;3.706;2023-05-19T10:28:05;6.60;;;5.15;;
56045;SDS011;41913;51.030;3.706;2023-05-19T10:30:35;5.22;;;4.82;;
56045;SDS011;41913;51.030;3.706;2023-05-19T10:33:14;5.93;;;4.63;;
56045;SDS011;41913;51.030;3.706;2023-05-19T10:41:16;6.25;;;4.82;;
56045;SDS011;41913;51.030;3.706;2023-05-19T10:44:22;5.03;;;4.55;;
56045;SDS011;41913;51.030;3.706;2023-05-19T10:47:05;4.43;;;4.03;;
56045;SDS011;41913;51.030;3.706;2023-05-19T10:49:35;4.85;;;4.05;;
56045;SDS011;41913;51.030;3.706;2023-05-19T10:52:01;5.40;;;4.90;;
56045;SDS011;41913;51.030;3.706;2023-05-19T10:54:42;5.72;;;3.75;;
56045;SDS011;41913;51.030;3.706;2023-05-19T10:57:14;5.30;;;4.05;;
56045;SDS011;41913;51.030;3.706;2023-05-19T10:59:41;5.10;;;3.63;;
56045;SDS011;41913;51.030;3.706;2023-05-19T11:02:08;8.25;;;3.63;;
56045;SDS011;41913;51.030;3.706;2023-05-19T11:04:38;4.30;;;3.85;;
56045;SDS011;41913;51.030;3.706;2023-05-19T11:07:16;5.07;;;3.53;;
56045;SDS011;41913;51.030;3.706;2023-05-19T11:09:48;4.47;;;3.88;;
56045;SDS011;41913;51.030;3.706;2023-05-19T11:12:20;3.15;;;2.85;;
56045;SDS011;41913;51.030;3.706;2023-05-19T11:14:47;3.05;;;2.83;;
56045;SDS011;41913;51.030;3.706;2023-05-19T11:17:17;4.57;;;3.42;;
56045;SDS011;41913;51.030;3.706;2023-05-19T11:19:55;3.15;;;2.65;;
56045;SDS011;41913;51.030;3.706;2023-05-19T11:22:25;4.18;;;3.33;;
56045;SDS011;41913;51.030;3.706;2023-05-19T11:24:56;3.38;;;3.08;;
56045;SDS011;41913;51.030;3.706;2023-05-19T11:27:31;2.97;;;2.72;;
56045;SDS011;41913;51.030;3.706;2023-05-19T11:32:32;3.67;;;3.28;;
56045;SDS011;41913;51.030;3.706;2023-05-19T11:34:59;3.70;;;3.22;;
56045;SDS011;41913;51.030;3.706;2023-05-19T11:37:26;2.70;;;2.58;;
56045;SDS011;41913;51.030;3.706;2023-05-19T11:39:54;2.78;;;2.50;;
56045;SDS011;41913;51.030;3.706;2023-05-19T11:42:20;2.20;;;2.10;;
56045;SDS011;41913;51.030;3.706;2023-05-19T11:44:47;3.00;;;2.60;;
56045;SDS011;41913;51.030;3.706;2023-05-19T11:47:14;2.70;;;2.50;;
56045;SDS011;41913;51.030;3.706;2023-05-19T11:49:44;2.10;;;2.00;;
56045;SDS011;41913;51.030;3.706;2023-05-19T11:52:12;2.60;;;2.35;;
56045;SDS011;41913;51.030;3.706;2023-05-19T11:54:38;2.88;;;2.38;;
56045;SDS011;41913;51.030;3.706;2023-05-19T11:57:07;2.97;;;2.63;;
56045;SDS011;41913;51.030;3.706;2023-05-19T11:59:34;4.03;;;2.63;;
56045;SDS011;41913;51.030;3.706;2023-05-19T12:02:17;2.80;;;2.60;;
56045;SDS011;41913;51.030;3.706;2023-05-19T12:04:51;2.45;;;2.33;;
56045;SDS011;41913;51.030;3.706;2023-05-19T12:07:18;2.50;;;2.30;;
56045;SDS011;41913;51.030;3.706;2023-05-19T12:09:47;2.30;;;2.20;;
56045;SDS011;41913;51.030;3.706;2023-05-19T12:12:17;2.50;;;2.30;;
56045;SDS011;41913;51.030;3.706;2023-05-19T12:14:51;2.67;;;2.47;;
56045;SDS011;41913;51.030;3.706;2023-05-19T12:17:18;2.28;;;2.08;;
56045;SDS011;41913;51.030;3.706;2023-05-19T12:19:45;2.20;;;2.10;;
56045;SDS011;41913;51.030;3.706;2023-05-19T12:22:13;2.33;;;2.00;;
56045;SDS011;41913;51.030;3.706;2023-05-19T12:24:43;3.55;;;2.28;;
56045;SDS011;41913;51.030;3.706;2023-05-19T12:29:42;1.93;;;1.83;;
56045;SDS011;41913;51.030;3.706;2023-05-19T12:32:08;2.70;;;1.73;;
56045;SDS011;41913;51.030;3.706;2023-05-19T12:34:34;1.98;;;1.88;;
56045;SDS011;41913;51.030;3.706;2023-05-19T12:37:01;2.67;;;2.22;;
56045;SDS011;41913;51.030;3.706;2023-05-19T12:39:28;3.03;;;2.00;;
56045;SDS011;41913;51.030;3.706;2023-05-19T12:41:59;2.53;;;1.65;;
56045;SDS011;41913;51.030;3.706;2023-05-19T12:44:35;2.45;;;1.92;;
56045;SDS011;41913;51.030;3.706;2023-05-19T12:47:03;2.03;;;1.90;;
56045;SDS011;41913;51.030;3.706;2023-05-19T12:49:30;2.50;;;2.30;;
56045;SDS011;41913;51.030;3.706;2023-05-19T12:51:56;2.13;;;1.80;;
56045;SDS011;41913;51.030;3.706;2023-05-19T12:54:24;3.10;;;2.25;;
56045;SDS011;41913;51.030;3.706;2023-05-19T12:56:50;2.95;;;1.85;;
56045;SDS011;41913;51.030;3.706;2023-05-19T12:59:23;2.45;;;2.30;;
56045;SDS011;41913;51.030;3.706;2023-05-19T13:01:58;1.98;;;1.85;;
56045;SDS011;41913;51.030;3.706;2023-05-19T13:04:24;1.52;;;1.42;;
56045;SDS011;41913;51.030;3.706;2023-05-19T13:06:51;2.20;;;1.83;;
56045;SDS011;41913;51.030;3.706;2023-05-19T13:09:18;2.22;;;1.70;;
56045;SDS011;41913;51.030;3.706;2023-05-19T13:11:45;4.03;;;1.98;;
56045;SDS011;41913;51.030;3.706;2023-05-19T13:14:16;2.28;;;1.90;;
56045;SDS011;41913;51.030;3.706;2023-05-19T13:16:43;1.55;;;1.48;;
56045;SDS011;41913;51.030;3.706;2023-05-19T13:19:11;2.78;;;1.70;;
56045;SDS011;41913;51.030;3.706;2023-05-19T13:21:38;2.05;;;1.85;;
56045;SDS011;41913;51.030;3.706;2023-05-19T13:24:05;1.60;;;1.50;;
56045;SDS011;41913;51.030;3.706;2023-05-19T13:26:31;1.85;;;1.75;;
56045;SDS011;41913;51.030;3.706;2023-05-19T13:28:56;2.33;;;2.08;;
56045;SDS011;41913;51.030;3.706;2023-05-19T13:31:22;4.00;;;1.80;;
56045;SDS011;41913;51.030;3.706;2023-05-19T13:33:48;1.75;;;1.65;;
56045;SDS011;41913;51.030;3.706;2023-05-19T13:36:13;2.35;;;2.10;;
56045;SDS011;41913;51.030;3.706;2023-05-19T13:38:39;1.60;;;1.50;;
56045;SDS011;41913;51.030;3.706;2023-05-19T13:41:05;2.45;;;1.75;;
56045;SDS011;41913;51.030;3.706;2023-05-19T13:43:31;2.92;;;2.17;;
56045;SDS011;41913;51.030;3.706;2023-05-19T13:45:57;1.88;;;1.50;;
56045;SDS011;41913;51.030;3.706;2023-05-19T13:48:23;1.73;;;1.63;;
56045;SDS011;41913;51.030;3.706;2023-05-19T13:50:48;2.33;;;1.90;;
56045;SDS011;41913;51.030;3.706;2023-05-19T13:53:16;1.65;;;1.55;;
56045;SDS011;41913;51.030;3.706;2023-05-19T13:55:42;1.58;;;1.48;;
56045;SDS011;41913;51.030;3.706;2023-05-19T13:58:08;3.22;;;1.85;;
56045;SDS011;41913;51.030;3.706;2023-05-19T14:00:34;2.08;;;1.95;;
56045;SDS011;41913;51.030;3.706;2023-05-19T14:03:00;2.05;;;1.90;;
56045;SDS011;41913;51.030;3.706;2023-05-19T14:05:26;2.00;;;1.85;;
56045;SDS011;41913;51.030;3.706;2023-05-19T14:07:53;2.47;;;1.50;;
56045;SDS011;41913;51.030;3.706;2023-05-19T14:10:19;1.85;;;1.70;;
56045;SDS011;41913;51.030;3.706;2023-05-19T14:12:45;3.53;;;1.55;;
56045;SDS011;41913;51.030;3.706;2023-05-19T14:15:10;2.13;;;1.73;;
56045;SDS011;41913;51.030;3.706;2023-05-19T14:17:36;1.83;;;1.67;;
56045;SDS011;41913;51.030;3.706;2023-05-19T14:20:03;1.25;;;1.25;;
56045;SDS011;41913;51.030;3.706;2023-05-19T14:22:29;1.85;;;1.75;;
56045;SDS011;41913;51.030;3.706;2023-05-19T14:24:55;1.90;;;1.55;;
56045;SDS011;41913;51.030;3.706;2023-05-19T14:27:21;1.75;;;1.65;;
56045;SDS011;41913;51.030;3.706;2023-05-19T14:29:46;1.60;;;1.50;;
56045;SDS011;41913;51.030;3.706;2023-05-19T14:32:12;1.45;;;1.35;;
56045;SDS011;41913;51.030;3.706;2023-05-19T14:34:38;2.85;;;1.85;;
56045;SDS011;41913;51.030;3.706;2023-05-19T14:37:04;3.20;;;1.50;;
56045;SDS011;41913;51.030;3.706;2023-05-19T14:39:31;1.58;;;1.50;;
56045;SDS011;41913;51.030;3.706;2023-05-19T14:41:56;1.75;;;1.65;;
56045;SDS011;41913;51.030;3.706;2023-05-19T14:44:24;2.05;;;1.35;;
56045;SDS011;41913;51.030;3.706;2023-05-19T14:46:54;1.77;;;1.40;;
56045;SDS011;41913;51.030;3.706;2023-05-19T14:49:19;1.88;;;1.77;;
56045;SDS011;41913;51.030;3.706;2023-05-19T14:51:45;1.70;;;1.60;;
56045;SDS011;41913;51.030;3.706;2023-05-19T14:54:11;2.45;;;1.88;;
56045;SDS011;41913;51.030;3.706;2023-05-19T14:56:36;2.70;;;2.15;;
56045;SDS011;41913;51.030;3.706;2023-05-19T14:59:02;1.00;;;1.00;;
56045;SDS011;41913;51.030;3.706;2023-05-19T15:01:28;2.08;;;1.35;;
56045;SDS011;41913;51.030;3.706;2023-05-19T15:03:54;3.03;;;1.73;;
56045;SDS011;41913;51.030;3.706;2023-05-19T15:06:20;2.33;;;1.50;;
56045;SDS011;41913;51.030;3.706;2023-05-19T15:08:46;1.75;;;1.35;;
56045;SDS011;41913;51.030;3.706;2023-05-19T15:11:11;1.55;;;1.45;;
56045;SDS011;41913;51.030;3.706;2023-05-19T15:13:38;1.75;;;1.63;;
56045;SDS011;41913;51.030;3.706;2023-05-19T15:16:04;3.88;;;1.80;;
56045;SDS011;41913;51.030;3.706;2023-05-19T15:18:34;2.00;;;1.40;;
56045;SDS011;41913;51.030;3.706;2023-05-19T15:21:00;1.35;;;1.25;;
56045;SDS011;41913;51.030;3.706;2023-05-19T15:23:26;2.70;;;1.40;;
56045;SDS011;41913;51.030;3.706;2023-05-19T15:25:52;2.50;;;1.80;;